logo
Search for airport 
image banner adimage banner adimage banner ad
image banner ad

LOBC - Landesklinikum Hainburg Kh

Located in District Bruck An Der Leitha, Austria

ICAO - , IATA -

Data provided by Airmate  

General information

Coordinates: N48°8'36" E16°57'32"
Elevation is 595 feet MSL.
 
View others Airports in Lower Austria

Operational data

Special qualification required
Current time UTC:
Current local time:
Weather at : LZIB - Bratislava/M. R. Stefanik ( 19 km )
METAR: LZIB 171900Z 01007KT CAVOK 08/03 Q1006 NOSIG
TAF: TAF LZIB 171715Z 1718/1818 34014KT CAVOK BECMG 1718/1720 35004KT TEMPO 1808/1810 9999 FEW028TCU BKN030
View NOTAMs / SUP AIP / TFR affecting this airport [VIEW]
Communications frequencies: [VIEW]

Runways:

Airport contact information

Address: District Bruck An Der Leitha Austria

Satellite view of LOBC